createdAt,value
2019-05-28T00:07:49.822Z,22.8
2019-05-28T00:17:49.038Z,22.8
2019-05-28T00:27:48.265Z,22.8
2019-05-28T00:37:47.466Z,22.8
2019-05-28T00:47:46.688Z,22.8
2019-05-28T00:57:45.899Z,22.8
2019-05-28T01:07:45.116Z,22.7
2019-05-28T01:17:44.384Z,22.7
2019-05-28T01:27:43.559Z,22.7
2019-05-28T01:37:42.769Z,22.7
2019-05-28T01:47:41.969Z,22.7
2019-05-28T01:57:41.187Z,22.7
2019-05-28T02:07:40.409Z,22.6
2019-05-28T02:17:39.627Z,22.7
2019-05-28T02:27:38.844Z,22.6
2019-05-28T02:37:38.115Z,22.6
2019-05-28T02:47:37.279Z,22.6
2019-05-28T02:57:36.544Z,22.6
2019-05-28T03:07:35.706Z,22.6
2019-05-28T03:17:34.922Z,22.6
2019-05-28T03:27:34.146Z,22.6
2019-05-28T03:37:33.415Z,22.6
2019-05-28T03:47:32.581Z,22.6
2019-05-28T03:57:31.793Z,22.6
2019-05-28T04:07:31.014Z,22.6
2019-05-28T04:17:30.229Z,22.7
2019-05-28T04:27:29.501Z,22.8
2019-05-28T04:37:28.662Z,22.8
2019-05-28T04:47:27.878Z,22.9
2019-05-28T04:57:27.097Z,23.1
2019-05-28T05:07:26.326Z,23.2
2019-05-28T05:17:25.599Z,23.3
2019-05-28T05:27:24.762Z,23.4
2019-05-28T05:37:24.035Z,23.5
2019-05-28T05:47:23.215Z,23.6
2019-05-28T05:57:22.417Z,23.8
2019-05-28T06:07:21.666Z,23.9
2019-05-28T06:17:20.913Z,23.9
2019-05-28T06:27:20.081Z,23.9
2019-05-28T06:37:19.297Z,23.8
2019-05-28T06:47:18.562Z,23.8
2019-05-28T06:57:22.610Z,23.8
2019-05-28T07:07:17.003Z,23.8
2019-05-28T07:17:16.174Z,23.8
2019-05-28T07:27:15.386Z,23.8
2019-05-28T07:37:14.604Z,23.8
2019-05-28T07:47:13.831Z,23.9
2019-05-28T07:57:13.097Z,23.9
2019-05-28T08:07:12.266Z,24
2019-05-28T08:17:11.538Z,24.1
2019-05-28T08:27:10.703Z,24.1
2019-05-28T08:37:09.920Z,24.2
2019-05-28T08:47:09.136Z,24.3
2019-05-28T08:57:08.353Z,24.3
2019-05-28T09:07:07.572Z,24.3
2019-05-28T09:17:06.822Z,24.4
2019-05-28T09:27:06.055Z,24.3
2019-05-28T09:37:05.272Z,24.4
2019-05-28T09:47:04.497Z,24.4
2019-05-28T09:57:03.676Z,24.4
2019-05-28T10:07:02.943Z,24.4
2019-05-28T10:17:02.094Z,24.4
2019-05-28T10:27:01.320Z,24.4
2019-05-28T10:37:00.550Z,24.5
2019-05-28T10:46:59.747Z,24.5
2019-05-28T10:56:58.996Z,24.4
2019-05-28T11:06:58.191Z,24.4
2019-05-28T11:16:57.409Z,24.5
2019-05-28T11:26:56.629Z,24.4
2019-05-28T11:37:08.630Z,24.4
2019-05-28T11:46:55.113Z,24.4
2019-05-28T11:56:54.330Z,24.4
2019-05-28T12:06:53.554Z,24.3
2019-05-28T12:16:52.722Z,24.3
2019-05-28T12:26:51.986Z,24.3
2019-05-28T12:36:51.159Z,24.3
2019-05-28T12:46:50.371Z,24.3
2019-05-28T12:56:49.646Z,24.3
2019-05-28T13:06:48.822Z,24.3
2019-05-28T13:16:48.029Z,24.3
2019-05-28T13:26:47.247Z,24.3
2019-05-28T13:36:46.466Z,24.3
2019-05-28T13:46:45.691Z,24.3
2019-05-28T13:56:44.903Z,24.3
2019-05-28T14:06:44.753Z,24.3
2019-05-28T14:16:43.350Z,24.3
2019-05-28T14:26:42.566Z,24.3
2019-05-28T14:36:41.778Z,24.3
2019-05-28T14:46:41.004Z,24.3
2019-05-28T14:56:40.218Z,24.3
2019-05-28T15:06:39.485Z,24.3
2019-05-28T15:16:38.658Z,24.3
2019-05-28T15:26:37.879Z,24.3
2019-05-28T15:36:37.098Z,24.3
2019-05-28T15:46:36.333Z,24.3
2019-05-28T15:56:35.530Z,24.4
2019-05-28T16:06:34.757Z,24.4
2019-05-28T16:16:33.976Z,24.4
2019-05-28T16:26:33.192Z,24.4
2019-05-28T16:36:32.421Z,24.4
2019-05-28T16:46:31.683Z,24.3
2019-05-28T16:56:30.917Z,24.3
2019-05-28T17:06:30.101Z,24.3
2019-05-28T17:16:29.301Z,24.2
2019-05-28T17:26:28.529Z,24.2
2019-05-28T17:36:27.795Z,24.1
2019-05-28T17:46:27.018Z,24.1
2019-05-28T17:56:26.199Z,24.1
2019-05-28T18:06:25.478Z,24.1
2019-05-28T18:16:24.659Z,23.9
2019-05-28T18:26:23.903Z,23.9
2019-05-28T18:36:23.168Z,23.9
2019-05-28T18:46:22.410Z,23.9
2019-05-28T18:56:21.576Z,23.9
2019-05-28T19:06:20.863Z,23.9
2019-05-28T19:16:20.043Z,24
2019-05-28T19:26:19.263Z,24.1
2019-05-28T19:36:18.505Z,24.1
2019-05-28T19:46:17.732Z,24
2019-05-28T19:56:16.981Z,23.8
2019-05-28T20:06:16.185Z,23.6
2019-05-28T20:16:15.412Z,23.4
2019-05-28T20:26:14.690Z,23.4
2019-05-28T20:36:13.913Z,23.6
2019-05-28T20:46:13.136Z,23.6
2019-05-28T20:56:12.311Z,23.7
2019-05-28T21:08:01.251Z,23.4
2019-05-28T21:18:00.422Z,23.2
2019-05-28T21:28:00.611Z,23.3
2019-05-28T21:37:59.195Z,23.3
2019-05-28T21:47:58.486Z,23.4
2019-05-28T21:57:57.690Z,23.4
2019-05-28T22:07:57.291Z,23.5
2019-05-28T22:17:56.063Z,23.6
2019-05-28T22:27:56.426Z,23.6
2019-05-28T22:37:54.545Z,23.7
2019-05-28T22:47:53.810Z,23.6
2019-05-28T22:57:53.121Z,23.5
2019-05-28T23:07:52.393Z,23.4
2019-05-28T23:17:51.674Z,23.3
2019-05-28T23:27:50.852Z,23.2
2019-05-28T23:37:50.075Z,23.1
2019-05-28T23:47:49.341Z,23.1
2019-05-28T23:57:48.516Z,22.9
